sensor_id;sensor_type;location;lat;lon;timestamp;pressure;altitude;pressure_sealevel;temperature;humidity
77450;BME280;66536;53.150;18.172;2023-08-20T00:01:01;101556.52;;;21.60;80.94
77450;BME280;66536;53.150;18.172;2023-08-20T00:03:50;101557.40;;;21.56;81.30
77450;BME280;66536;53.150;18.172;2023-08-20T00:06:17;101555.86;;;21.54;81.31
77450;BME280;66536;53.150;18.172;2023-08-20T00:08:44;101559.59;;;21.52;81.29
77450;BME280;66536;53.150;18.172;2023-08-20T00:11:13;101556.90;;;21.49;81.34
77450;BME280;66536;53.150;18.172;2023-08-20T00:13:40;101554.30;;;21.47;81.43
77450;BME280;66536;53.150;18.172;2023-08-20T00:16:08;101554.39;;;21.44;81.47
77450;BME280;66536;53.150;18.172;2023-08-20T00:18:35;101552.33;;;21.42;81.70
77450;BME280;66536;53.150;18.172;2023-08-20T00:21:02;101550.69;;;21.40;81.79
77450;BME280;66536;53.150;18.172;2023-08-20T00:23:31;101550.63;;;21.39;81.75
77450;BME280;66536;53.150;18.172;2023-08-20T00:26:01;101554.00;;;21.37;81.93
77450;BME280;66536;53.150;18.172;2023-08-20T00:28:28;101552.88;;;21.36;82.09
77450;BME280;66536;53.150;18.172;2023-08-20T00:30:56;101551.98;;;21.34;82.21
77450;BME280;66536;53.150;18.172;2023-08-20T00:33:24;101550.59;;;21.31;82.36
77450;BME280;66536;53.150;18.172;2023-08-20T00:35:50;101548.98;;;21.27;82.76
77450;BME280;66536;53.150;18.172;2023-08-20T00:38:17;101549.64;;;21.22;83.09
77450;BME280;66536;53.150;18.172;2023-08-20T00:40:44;101550.41;;;21.17;83.22
77450;BME280;66536;53.150;18.172;2023-08-20T00:43:11;101553.02;;;21.14;83.30
77450;BME280;66536;53.150;18.172;2023-08-20T00:45:37;101556.42;;;21.12;83.32
77450;BME280;66536;53.150;18.172;2023-08-20T00:48:05;101556.69;;;21.09;83.15
77450;BME280;66536;53.150;18.172;2023-08-20T00:50:34;101555.46;;;21.08;83.13
77450;BME280;66536;53.150;18.172;2023-08-20T00:53:03;101553.40;;;21.08;83.27
77450;BME280;66536;53.150;18.172;2023-08-20T00:55:30;101556.23;;;21.06;83.39
77450;BME280;66536;53.150;18.172;2023-08-20T00:57:56;101553.60;;;21.05;83.44
77450;BME280;66536;53.150;18.172;2023-08-20T01:00:24;101555.91;;;21.04;83.47
77450;BME280;66536;53.150;18.172;2023-08-20T01:03:12;101557.15;;;21.02;83.29
77450;BME280;66536;53.150;18.172;2023-08-20T01:05:48;101553.94;;;21.00;83.44
77450;BME280;66536;53.150;18.172;2023-08-20T01:08:37;101550.52;;;20.97;83.30
77450;BME280;66536;53.150;18.172;2023-08-20T01:11:15;101551.70;;;20.95;83.49
77450;BME280;66536;53.150;18.172;2023-08-20T01:13:43;101555.75;;;20.93;83.60
77450;BME280;66536;53.150;18.172;2023-08-20T01:16:10;101556.48;;;20.92;83.67
77450;BME280;66536;53.150;18.172;2023-08-20T01:18:39;101557.36;;;20.90;83.66
77450;BME280;66536;53.150;18.172;2023-08-20T01:21:20;101556.71;;;20.87;83.68
77450;BME280;66536;53.150;18.172;2023-08-20T01:24:04;101558.13;;;20.85;83.56
77450;BME280;66536;53.150;18.172;2023-08-20T01:26:48;101560.85;;;20.84;83.72
77450;BME280;66536;53.150;18.172;2023-08-20T01:29:20;101563.98;;;20.82;83.76
77450;BME280;66536;53.150;18.172;2023-08-20T01:31:48;101564.48;;;20.80;83.70
77450;BME280;66536;53.150;18.172;2023-08-20T01:34:15;101563.73;;;20.77;83.82
77450;BME280;66536;53.150;18.172;2023-08-20T01:36:42;101565.61;;;20.75;83.74
77450;BME280;66536;53.150;18.172;2023-08-20T01:39:11;101562.66;;;20.74;83.96
77450;BME280;66536;53.150;18.172;2023-08-20T01:41:39;101565.30;;;20.74;84.05
77450;BME280;66536;53.150;18.172;2023-08-20T01:44:07;101564.59;;;20.72;83.94
77450;BME280;66536;53.150;18.172;2023-08-20T01:46:34;101565.30;;;20.69;83.89
77450;BME280;66536;53.150;18.172;2023-08-20T01:49:03;101564.71;;;20.67;83.96
77450;BME280;66536;53.150;18.172;2023-08-20T01:51:30;101565.38;;;20.65;84.22
77450;BME280;66536;53.150;18.172;2023-08-20T01:53:57;101565.27;;;20.63;84.03
77450;BME280;66536;53.150;18.172;2023-08-20T01:56:24;101571.35;;;20.62;84.24
77450;BME280;66536;53.150;18.172;2023-08-20T01:58:51;101576.73;;;20.61;84.08
77450;BME280;66536;53.150;18.172;2023-08-20T02:01:18;101577.19;;;20.61;84.20
77450;BME280;66536;53.150;18.172;2023-08-20T02:03:45;101580.02;;;20.59;84.32
77450;BME280;66536;53.150;18.172;2023-08-20T02:06:12;101582.64;;;20.58;84.30
77450;BME280;66536;53.150;18.172;2023-08-20T02:08:39;101580.30;;;20.56;84.35
77450;BME280;66536;53.150;18.172;2023-08-20T02:11:05;101585.60;;;20.54;84.43
77450;BME280;66536;53.150;18.172;2023-08-20T02:13:32;101586.48;;;20.52;84.63
77450;BME280;66536;53.150;18.172;2023-08-20T02:16:02;101590.35;;;20.51;84.76
77450;BME280;66536;53.150;18.172;2023-08-20T02:18:30;101586.64;;;20.49;84.85
77450;BME280;66536;53.150;18.172;2023-08-20T02:20:58;101589.63;;;20.47;84.89
77450;BME280;66536;53.150;18.172;2023-08-20T02:23:24;101590.85;;;20.42;85.06
77450;BME280;66536;53.150;18.172;2023-08-20T02:25:52;101589.15;;;20.36;85.29
77450;BME280;66536;53.150;18.172;2023-08-20T02:28:18;101589.64;;;20.32;85.09
77450;BME280;66536;53.150;18.172;2023-08-20T02:30:46;101589.92;;;20.29;85.22
77450;BME280;66536;53.150;18.172;2023-08-20T02:33:16;101591.08;;;20.27;85.04
77450;BME280;66536;53.150;18.172;2023-08-20T02:35:43;101587.73;;;20.25;84.95
77450;BME280;66536;53.150;18.172;2023-08-20T02:38:10;101589.05;;;20.25;84.87
77450;BME280;66536;53.150;18.172;2023-08-20T02:40:44;101587.31;;;20.25;84.81
77450;BME280;66536;53.150;18.172;2023-08-20T02:43:12;101586.56;;;20.24;84.76
77450;BME280;66536;53.150;18.172;2023-08-20T02:45:40;101581.02;;;20.22;84.79
77450;BME280;66536;53.150;18.172;2023-08-20T02:48:08;101582.08;;;20.21;84.66
77450;BME280;66536;53.150;18.172;2023-08-20T02:50:36;101577.89;;;20.20;84.67
77450;BME280;66536;53.150;18.172;2023-08-20T02:53:04;101573.84;;;20.18;84.72
77450;BME280;66536;53.150;18.172;2023-08-20T02:55:32;101574.80;;;20.17;84.73
77450;BME280;66536;53.150;18.172;2023-08-20T02:57:59;101570.13;;;20.14;84.84
77450;BME280;66536;53.150;18.172;2023-08-20T03:00:26;101573.73;;;20.12;84.76
77450;BME280;66536;53.150;18.172;2023-08-20T03:02:53;101574.45;;;20.11;84.81
77450;BME280;66536;53.150;18.172;2023-08-20T03:05:21;101579.85;;;20.09;84.66
77450;BME280;66536;53.150;18.172;2023-08-20T03:07:48;101582.91;;;20.06;84.59
77450;BME280;66536;53.150;18.172;2023-08-20T03:10:15;101583.83;;;20.03;84.65
77450;BME280;66536;53.150;18.172;2023-08-20T03:12:42;101586.27;;;19.99;84.75
77450;BME280;66536;53.150;18.172;2023-08-20T03:15:09;101585.41;;;19.98;84.54
77450;BME280;66536;53.150;18.172;2023-08-20T03:17:36;101586.23;;;19.95;84.58
77450;BME280;66536;53.150;18.172;2023-08-20T03:20:03;101589.56;;;19.93;84.64
77450;BME280;66536;53.150;18.172;2023-08-20T03:22:32;101588.11;;;19.91;84.64
77450;BME280;66536;53.150;18.172;2023-08-20T03:24:59;101589.40;;;19.89;84.87
77450;BME280;66536;53.150;18.172;2023-08-20T03:27:27;101586.80;;;19.86;84.72
77450;BME280;66536;53.150;18.172;2023-08-20T03:29:54;101587.63;;;19.85;84.71
77450;BME280;66536;53.150;18.172;2023-08-20T03:32:21;101588.69;;;19.82;84.96
77450;BME280;66536;53.150;18.172;2023-08-20T03:34:48;101589.09;;;19.80;85.05
77450;BME280;66536;53.150;18.172;2023-08-20T03:37:18;101593.69;;;19.79;84.93
77450;BME280;66536;53.150;18.172;2023-08-20T03:39:45;101594.46;;;19.77;85.10
77450;BME280;66536;53.150;18.172;2023-08-20T03:42:11;101593.93;;;19.76;85.17
77450;BME280;66536;53.150;18.172;2023-08-20T03:44:38;101590.04;;;19.76;85.10
77450;BME280;66536;53.150;18.172;2023-08-20T03:47:05;101593.52;;;19.78;85.07
77450;BME280;66536;53.150;18.172;2023-08-20T03:49:32;101591.41;;;19.78;84.97
77450;BME280;66536;53.150;18.172;2023-08-20T03:51:59;101590.95;;;19.78;84.92
77450;BME280;66536;53.150;18.172;2023-08-20T03:54:29;101592.44;;;19.79;84.80
77450;BME280;66536;53.150;18.172;2023-08-20T03:56:58;101596.85;;;19.80;84.92
77450;BME280;66536;53.150;18.172;2023-08-20T03:59:25;101596.55;;;19.81;85.03
77450;BME280;66536;53.150;18.172;2023-08-20T04:01:51;101600.40;;;19.82;84.94
77450;BME280;66536;53.150;18.172;2023-08-20T04:04:18;101601.32;;;19.83;84.85
77450;BME280;66536;53.150;18.172;2023-08-20T04:06:45;101603.23;;;19.85;84.81
77450;BME280;66536;53.150;18.172;2023-08-20T04:09:12;101604.83;;;19.87;84.77
77450;BME280;66536;53.150;18.172;2023-08-20T04:11:39;101607.11;;;19.89;84.76
77450;BME280;66536;53.150;18.172;2023-08-20T04:14:07;101608.52;;;19.92;84.63
77450;BME280;66536;53.150;18.172;2023-08-20T04:16:33;101613.05;;;19.97;84.58
77450;BME280;66536;53.150;18.172;2023-08-20T04:19:01;101607.05;;;20.01;84.30
77450;BME280;66536;53.150;18.172;2023-08-20T04:21:28;101612.15;;;20.06;84.33
77450;BME280;66536;53.150;18.172;2023-08-20T04:23:57;101617.37;;;20.12;84.26
77450;BME280;66536;53.150;18.172;2023-08-20T04:26:25;101619.94;;;20.18;84.03
77450;BME280;66536;53.150;18.172;2023-08-20T04:28:51;101621.64;;;20.24;84.04
77450;BME280;66536;53.150;18.172;2023-08-20T04:31:18;101628.20;;;20.29;83.81
77450;BME280;66536;53.150;18.172;2023-08-20T04:33:51;101628.09;;;20.32;83.82
77450;BME280;66536;53.150;18.172;2023-08-20T04:36:19;101627.83;;;20.36;83.61
77450;BME280;66536;53.150;18.172;2023-08-20T04:38:46;101630.20;;;20.42;83.68
77450;BME280;66536;53.150;18.172;2023-08-20T04:41:12;101620.95;;;20.49;83.52
77450;BME280;66536;53.150;18.172;2023-08-20T04:43:39;101622.81;;;20.57;83.48
77450;BME280;66536;53.150;18.172;2023-08-20T04:46:06;101623.41;;;20.65;83.07
77450;BME280;66536;53.150;18.172;2023-08-20T04:48:52;101621.65;;;20.74;82.99
77450;BME280;66536;53.150;18.172;2023-08-20T04:51:21;101623.97;;;20.85;82.96
77450;BME280;66536;53.150;18.172;2023-08-20T04:53:50;101622.89;;;20.95;82.74
77450;BME280;66536;53.150;18.172;2023-08-20T04:56:17;101633.95;;;21.05;82.91
77450;BME280;66536;53.150;18.172;2023-08-20T04:58:46;101637.44;;;21.13;82.96
77450;BME280;66536;53.150;18.172;2023-08-20T05:01:14;101640.54;;;21.21;82.83
77450;BME280;66536;53.150;18.172;2023-08-20T05:03:41;101643.55;;;21.29;82.94
77450;BME280;66536;53.150;18.172;2023-08-20T05:06:07;101642.17;;;21.36;82.83
77450;BME280;66536;53.150;18.172;2023-08-20T05:08:34;101642.53;;;21.43;82.71
77450;BME280;66536;53.150;18.172;2023-08-20T05:11:01;101645.27;;;21.50;82.54
77450;BME280;66536;53.150;18.172;2023-08-20T05:13:28;101648.01;;;21.59;82.43
77450;BME280;66536;53.150;18.172;2023-08-20T05:15:55;101650.16;;;21.68;82.43
77450;BME280;66536;53.150;18.172;2023-08-20T05:18:21;101651.95;;;21.77;82.23
77450;BME280;66536;53.150;18.172;2023-08-20T05:20:48;101653.39;;;21.86;82.08
77450;BME280;66536;53.150;18.172;2023-08-20T05:23:17;101653.23;;;21.96;81.82
77450;BME280;66536;53.150;18.172;2023-08-20T05:25:44;101654.83;;;22.06;81.55
77450;BME280;66536;53.150;18.172;2023-08-20T05:28:12;101653.77;;;22.13;80.86
77450;BME280;66536;53.150;18.172;2023-08-20T05:30:40;101650.84;;;22.20;80.38
77450;BME280;66536;53.150;18.172;2023-08-20T05:33:07;101656.45;;;22.29;80.22
77450;BME280;66536;53.150;18.172;2023-08-20T05:35:36;101655.27;;;22.39;79.86
77450;BME280;66536;53.150;18.172;2023-08-20T05:38:03;101657.30;;;22.47;79.64
77450;BME280;66536;53.150;18.172;2023-08-20T05:40:30;101656.70;;;22.58;79.37
77450;BME280;66536;53.150;18.172;2023-08-20T05:42:57;101654.41;;;22.69;79.16
77450;BME280;66536;53.150;18.172;2023-08-20T05:45:24;101652.94;;;22.82;78.85
77450;BME280;66536;53.150;18.172;2023-08-20T05:47:51;101656.31;;;22.94;78.59
77450;BME280;66536;53.150;18.172;2023-08-20T05:50:18;101657.27;;;23.06;78.16
77450;BME280;66536;53.150;18.172;2023-08-20T05:52:45;101660.05;;;23.19;77.96
77450;BME280;66536;53.150;18.172;2023-08-20T05:55:12;101657.85;;;23.29;77.63
77450;BME280;66536;53.150;18.172;2023-08-20T05:57:39;101655.09;;;23.42;77.32
77450;BME280;66536;53.150;18.172;2023-08-20T06:00:07;101657.29;;;23.55;76.97
77450;BME280;66536;53.150;18.172;2023-08-20T06:02:39;101662.96;;;23.69;76.62
77450;BME280;66536;53.150;18.172;2023-08-20T06:05:06;101661.85;;;23.83;76.39
77450;BME280;66536;53.150;18.172;2023-08-20T06:07:34;101663.87;;;23.97;75.97
77450;BME280;66536;53.150;18.172;2023-08-20T06:10:01;101663.57;;;24.11;75.78
77450;BME280;66536;53.150;18.172;2023-08-20T06:12:28;101664.71;;;24.25;75.56
77450;BME280;66536;53.150;18.172;2023-08-20T06:14:54;101665.41;;;24.35;74.89
77450;BME280;66536;53.150;18.172;2023-08-20T06:17:21;101659.72;;;24.48;74.72
77450;BME280;66536;53.150;18.172;2023-08-20T06:19:48;101661.20;;;24.64;74.39
77450;BME280;66536;53.150;18.172;2023-08-20T06:22:15;101661.91;;;24.79;74.00
77450;BME280;66536;53.150;18.172;2023-08-20T06:24:42;101655.48;;;24.95;73.70
77450;BME280;66536;53.150;18.172;2023-08-20T06:27:08;101657.64;;;25.10;73.56
77450;BME280;66536;53.150;18.172;2023-08-20T06:29:35;101657.71;;;25.23;73.21
77450;BME280;66536;53.150;18.172;2023-08-20T06:32:02;101655.00;;;25.37;73.14
77450;BME280;66536;53.150;18.172;2023-08-20T06:34:34;101661.44;;;25.53;72.93
77450;BME280;66536;53.150;18.172;2023-08-20T06:37:01;101662.42;;;25.68;72.39
77450;BME280;66536;53.150;18.172;2023-08-20T06:39:29;101661.70;;;25.84;71.90
77450;BME280;66536;53.150;18.172;2023-08-20T06:41:56;101664.08;;;26.03;71.22
77450;BME280;66536;53.150;18.172;2023-08-20T06:44:25;101667.45;;;26.23;70.68
77450;BME280;66536;53.150;18.172;2023-08-20T06:46:52;101657.83;;;26.42;70.17
77450;BME280;66536;53.150;18.172;2023-08-20T06:49:23;101658.42;;;26.63;69.80
77450;BME280;66536;53.150;18.172;2023-08-20T06:51:52;101660.69;;;26.83;69.30
77450;BME280;66536;53.150;18.172;2023-08-20T06:54:20;101664.89;;;27.03;69.00
77450;BME280;66536;53.150;18.172;2023-08-20T06:56:47;101664.11;;;27.23;68.26
77450;BME280;66536;53.150;18.172;2023-08-20T06:59:18;101663.33;;;27.38;67.70
77450;BME280;66536;53.150;18.172;2023-08-20T07:01:46;101664.31;;;27.51;67.21
77450;BME280;66536;53.150;18.172;2023-08-20T07:04:16;101662.70;;;27.65;66.55
77450;BME280;66536;53.150;18.172;2023-08-20T07:06:45;101665.10;;;27.84;66.13
77450;BME280;66536;53.150;18.172;2023-08-20T07:09:22;101662.05;;;28.01;65.61
77450;BME280;66536;53.150;18.172;2023-08-20T07:11:51;101663.69;;;28.22;64.95
77450;BME280;66536;53.150;18.172;2023-08-20T07:14:18;101664.66;;;28.44;64.33
77450;BME280;66536;53.150;18.172;2023-08-20T07:16:45;101661.84;;;28.64;63.64
77450;BME280;66536;53.150;18.172;2023-08-20T07:19:14;101656.92;;;28.84;62.79
77450;BME280;66536;53.150;18.172;2023-08-20T07:21:41;101660.55;;;29.03;62.16
77450;BME280;66536;53.150;18.172;2023-08-20T07:24:14;101667.35;;;29.19;61.49
77450;BME280;66536;53.150;18.172;2023-08-20T07:26:42;101661.36;;;29.32;61.20
77450;BME280;66536;53.150;18.172;2023-08-20T07:29:15;101661.17;;;29.43;60.69
77450;BME280;66536;53.150;18.172;2023-08-20T07:31:45;101667.50;;;29.47;60.06
77450;BME280;66536;53.150;18.172;2023-08-20T07:34:11;101663.52;;;29.50;59.73
77450;BME280;66536;53.150;18.172;2023-08-20T07:36:39;101661.95;;;29.48;59.62
77450;BME280;66536;53.150;18.172;2023-08-20T07:39:05;101667.03;;;29.47;59.70
77450;BME280;66536;53.150;18.172;2023-08-20T07:41:32;101667.54;;;29.46;59.51
77450;BME280;66536;53.150;18.172;2023-08-20T07:43:59;101674.55;;;29.42;59.06
77450;BME280;66536;53.150;18.172;2023-08-20T07:46:26;101673.68;;;29.38;58.81
77450;BME280;66536;53.150;18.172;2023-08-20T07:48:52;101676.52;;;29.34;58.70
77450;BME280;66536;53.150;18.172;2023-08-20T07:51:19;101675.61;;;29.32;58.55
77450;BME280;66536;53.150;18.172;2023-08-20T07:53:46;101674.73;;;29.31;58.43
77450;BME280;66536;53.150;18.172;2023-08-20T07:56:12;101671.33;;;29.31;58.57
77450;BME280;66536;53.150;18.172;2023-08-20T07:58:42;101677.58;;;29.34;58.60
77450;BME280;66536;53.150;18.172;2023-08-20T08:01:12;101672.51;;;29.40;58.43
77450;BME280;66536;53.150;18.172;2023-08-20T08:03:40;101673.32;;;29.48;58.37
77450;BME280;66536;53.150;18.172;2023-08-20T08:06:07;101671.77;;;29.57;58.10
77450;BME280;66536;53.150;18.172;2023-08-20T08:08:41;101675.45;;;29.67;57.61
77450;BME280;66536;53.150;18.172;2023-08-20T08:11:12;101676.41;;;29.67;55.57
77450;BME280;66536;53.150;18.172;2023-08-20T08:13:38;101677.44;;;29.59;54.07
77450;BME280;66536;53.150;18.172;2023-08-20T08:16:05;101674.78;;;29.54;54.88
77450;BME280;66536;53.150;18.172;2023-08-20T08:18:32;101675.27;;;29.62;54.83
77450;BME280;66536;53.150;18.172;2023-08-20T08:20:59;101675.73;;;29.71;54.15
77450;BME280;66536;53.150;18.172;2023-08-20T08:23:25;101672.30;;;29.83;53.98
77450;BME280;66536;53.150;18.172;2023-08-20T08:25:55;101671.41;;;30.04;53.35
77450;BME280;66536;53.150;18.172;2023-08-20T08:28:25;101668.27;;;30.23;52.77
77450;BME280;66536;53.150;18.172;2023-08-20T08:30:52;101668.10;;;30.43;52.09
77450;BME280;66536;53.150;18.172;2023-08-20T08:33:22;101669.86;;;30.57;51.30
77450;BME280;66536;53.150;18.172;2023-08-20T08:35:54;101665.92;;;30.75;51.75
77450;BME280;66536;53.150;18.172;2023-08-20T08:38:21;101664.92;;;30.98;50.97
77450;BME280;66536;53.150;18.172;2023-08-20T08:40:49;101666.15;;;31.07;49.88
77450;BME280;66536;53.150;18.172;2023-08-20T08:43:18;101670.55;;;31.06;48.66
77450;BME280;66536;53.150;18.172;2023-08-20T08:46:24;101666.00;;;31.13;49.33
77450;BME280;66536;53.150;18.172;2023-08-20T08:49:16;101664.52;;;31.23;48.93
77450;BME280;66536;53.150;18.172;2023-08-20T08:51:44;101664.44;;;31.43;48.68
77450;BME280;66536;53.150;18.172;2023-08-20T08:54:13;101666.86;;;31.69;48.03
77450;BME280;66536;53.150;18.172;2023-08-20T08:56:41;101667.85;;;32.04;47.49
77450;BME280;66536;53.150;18.172;2023-08-20T08:59:08;101665.86;;;32.36;46.85
77450;BME280;66536;53.150;18.172;2023-08-20T09:01:38;101671.99;;;32.67;45.91
77450;BME280;66536;53.150;18.172;2023-08-20T09:04:06;101675.13;;;32.75;45.28
77450;BME280;66536;53.150;18.172;2023-08-20T09:06:52;101674.45;;;32.78;44.55
77450;BME280;66536;53.150;18.172;2023-08-20T09:09:20;101675.13;;;32.84;44.64
77450;BME280;66536;53.150;18.172;2023-08-20T09:11:48;101673.80;;;32.96;44.35
77450;BME280;66536;53.150;18.172;2023-08-20T09:14:27;101675.38;;;33.04;43.43
77450;BME280;66536;53.150;18.172;2023-08-20T09:16:58;101673.44;;;33.06;43.51
77450;BME280;66536;53.150;18.172;2023-08-20T09:19:29;101675.46;;;33.09;43.19
77450;BME280;66536;53.150;18.172;2023-08-20T09:21:58;101675.52;;;33.08;43.34
77450;BME280;66536;53.150;18.172;2023-08-20T09:24:33;101679.77;;;33.14;42.87
77450;BME280;66536;53.150;18.172;2023-08-20T09:27:03;101676.20;;;33.10;42.64
77450;BME280;66536;53.150;18.172;2023-08-20T09:29:32;101676.47;;;33.07;42.49
77450;BME280;66536;53.150;18.172;2023-08-20T09:32:01;101675.16;;;33.05;42.64
77450;BME280;66536;53.150;18.172;2023-08-20T09:34:36;101677.66;;;33.15;42.80
77450;BME280;66536;53.150;18.172;2023-08-20T09:37:07;101679.09;;;33.21;41.93
77450;BME280;66536;53.150;18.172;2023-08-20T09:39:34;101677.05;;;33.27;41.72
77450;BME280;66536;53.150;18.172;2023-08-20T09:42:01;101674.71;;;33.23;42.01
77450;BME280;66536;53.150;18.172;2023-08-20T09:44:33;101674.41;;;33.33;42.04
77450;BME280;66536;53.150;18.172;2023-08-20T09:47:06;101674.64;;;33.33;41.88
77450;BME280;66536;53.150;18.172;2023-08-20T09:49:39;101674.10;;;33.38;41.51
77450;BME280;66536;53.150;18.172;2023-08-20T09:52:08;101669.39;;;33.39;40.99
77450;BME280;66536;53.150;18.172;2023-08-20T09:57:35;101665.11;;;33.51;40.36
77450;BME280;66536;53.150;18.172;2023-08-20T10:00:05;101669.45;;;33.57;40.22
77450;BME280;66536;53.150;18.172;2023-08-20T10:02:41;101669.97;;;33.61;39.56
77450;BME280;66536;53.150;18.172;2023-08-20T10:05:10;101667.77;;;33.57;39.75
77450;BME280;66536;53.150;18.172;2023-08-20T10:07:38;101666.54;;;33.49;39.51
77450;BME280;66536;53.150;18.172;2023-08-20T10:10:06;101664.89;;;33.44;39.87
77450;BME280;66536;53.150;18.172;2023-08-20T10:12:34;101668.83;;;33.52;39.88
77450;BME280;66536;53.150;18.172;2023-08-20T10:15:03;101666.11;;;33.66;39.59
77450;BME280;66536;53.150;18.172;2023-08-20T10:17:32;101664.45;;;33.67;39.68
77450;BME280;66536;53.150;18.172;2023-08-20T10:20:01;101663.04;;;33.66;39.54
77450;BME280;66536;53.150;18.172;2023-08-20T10:22:39;101665.33;;;33.70;39.59
77450;BME280;66536;53.150;18.172;2023-08-20T10:25:11;101654.72;;;33.69;39.71
77450;BME280;66536;53.150;18.172;2023-08-20T10:27:41;101648.12;;;33.67;39.68
77450;BME280;66536;53.150;18.172;2023-08-20T10:30:13;101650.51;;;33.65;40.22
77450;BME280;66536;53.150;18.172;2023-08-20T10:32:47;101654.35;;;33.57;40.44
77450;BME280;66536;53.150;18.172;2023-08-20T10:35:17;101650.10;;;33.49;40.46
77450;BME280;66536;53.150;18.172;2023-08-20T10:38:11;101649.27;;;33.36;40.41
77450;BME280;66536;53.150;18.172;2023-08-20T10:40:55;101643.06;;;33.17;40.58
77450;BME280;66536;53.150;18.172;2023-08-20T10:46:14;101640.56;;;33.11;40.63
77450;BME280;66536;53.150;18.172;2023-08-20T10:48:45;101635.38;;;33.14;40.68
77450;BME280;66536;53.150;18.172;2023-08-20T10:51:16;101638.20;;;33.23;40.82
77450;BME280;66536;53.150;18.172;2023-08-20T10:54:04;101637.29;;;33.32;40.59
77450;BME280;66536;53.150;18.172;2023-08-20T10:56:46;101639.52;;;33.30;40.62
77450;BME280;66536;53.150;18.172;2023-08-20T10:59:21;101640.30;;;33.36;40.20
77450;BME280;66536;53.150;18.172;2023-08-20T11:01:50;101635.69;;;33.36;40.22
77450;BME280;66536;53.150;18.172;2023-08-20T11:04:19;101627.95;;;33.21;40.50
77450;BME280;66536;53.150;18.172;2023-08-20T11:06:49;101630.20;;;33.08;40.74
77450;BME280;66536;53.150;18.172;2023-08-20T11:09:22;101627.52;;;33.15;40.66
77450;BME280;66536;53.150;18.172;2023-08-20T11:11:50;101624.98;;;33.22;40.30
77450;BME280;66536;53.150;18.172;2023-08-20T11:14:18;101621.70;;;33.13;39.30
77450;BME280;66536;53.150;18.172;2023-08-20T11:16:47;101622.44;;;32.96;39.67
77450;BME280;66536;53.150;18.172;2023-08-20T11:19:21;101622.95;;;32.85;40.14
77450;BME280;66536;53.150;18.172;2023-08-20T11:21:49;101622.38;;;32.92;40.35
77450;BME280;66536;53.150;18.172;2023-08-20T11:24:16;101628.31;;;33.02;39.31
77450;BME280;66536;53.150;18.172;2023-08-20T11:26:44;101624.59;;;32.99;39.35
77450;BME280;66536;53.150;18.172;2023-08-20T11:29:12;101619.79;;;32.97;39.52
77450;BME280;66536;53.150;18.172;2023-08-20T11:31:39;101613.55;;;33.03;39.80
77450;BME280;66536;53.150;18.172;2023-08-20T11:34:06;101612.15;;;33.17;39.47
77450;BME280;66536;53.150;18.172;2023-08-20T11:36:34;101614.89;;;33.28;39.01
77450;BME280;66536;53.150;18.172;2023-08-20T11:39:03;101603.83;;;33.25;39.01
77450;BME280;66536;53.150;18.172;2023-08-20T11:41:29;101607.23;;;33.27;38.99
77450;BME280;66536;53.150;18.172;2023-08-20T11:43:56;101610.73;;;33.34;38.80
77450;BME280;66536;53.150;18.172;2023-08-20T11:46:24;101605.98;;;33.44;38.60
77450;BME280;66536;53.150;18.172;2023-08-20T11:49:02;101615.63;;;33.53;38.22
77450;BME280;66536;53.150;18.172;2023-08-20T11:51:35;101603.73;;;33.58;38.33
77450;BME280;66536;53.150;18.172;2023-08-20T11:54:05;101609.66;;;33.64;38.18
77450;BME280;66536;53.150;18.172;2023-08-20T11:56:34;101606.33;;;33.55;37.95
77450;BME280;66536;53.150;18.172;2023-08-20T11:59:02;101607.33;;;33.53;38.14
77450;BME280;66536;53.150;18.172;2023-08-20T12:01:31;101613.02;;;33.59;37.99
77450;BME280;66536;53.150;18.172;2023-08-20T12:04:00;101606.15;;;33.40;38.52
77450;BME280;66536;53.150;18.172;2023-08-20T12:06:29;101606.47;;;33.36;38.86
77450;BME280;66536;53.150;18.172;2023-08-20T12:08:58;101604.23;;;33.44;38.88
77450;BME280;66536;53.150;18.172;2023-08-20T12:11:26;101608.45;;;33.38;38.74
77450;BME280;66536;53.150;18.172;2023-08-20T12:13:54;101607.67;;;33.22;37.96
77450;BME280;66536;53.150;18.172;2023-08-20T12:16:23;101603.02;;;33.14;38.38
77450;BME280;66536;53.150;18.172;2023-08-20T12:18:52;101597.66;;;33.31;38.46
77450;BME280;66536;53.150;18.172;2023-08-20T12:21:19;101595.36;;;33.53;38.53
77450;BME280;66536;53.150;18.172;2023-08-20T12:23:46;101595.64;;;33.47;38.45
77450;BME280;66536;53.150;18.172;2023-08-20T12:26:13;101590.28;;;33.38;38.52
77450;BME280;66536;53.150;18.172;2023-08-20T12:28:39;101594.56;;;33.25;38.52
77450;BME280;66536;53.150;18.172;2023-08-20T12:31:08;101588.20;;;33.13;38.64
77450;BME280;66536;53.150;18.172;2023-08-20T12:33:34;101584.42;;;33.15;38.81
77450;BME280;66536;53.150;18.172;2023-08-20T12:36:02;101592.86;;;33.08;38.84
77450;BME280;66536;53.150;18.172;2023-08-20T12:38:29;101594.21;;;32.94;38.53
77450;BME280;66536;53.150;18.172;2023-08-20T12:41:01;101594.98;;;32.78;38.68
77450;BME280;66536;53.150;18.172;2023-08-20T12:43:30;101589.35;;;32.77;38.96
77450;BME280;66536;53.150;18.172;2023-08-20T12:45:56;101590.32;;;32.98;38.61
77450;BME280;66536;53.150;18.172;2023-08-20T12:48:24;101584.25;;;33.17;38.43
77450;BME280;66536;53.150;18.172;2023-08-20T12:50:51;101583.63;;;33.28;37.76
77450;BME280;66536;53.150;18.172;2023-08-20T12:53:21;101578.43;;;33.40;37.57
77450;BME280;66536;53.150;18.172;2023-08-20T12:55:47;101566.36;;;33.53;37.48